Time;durP1;ratioP1;P1;durP2;ratioP2;P2;SDS_P1;SDS_P2;PMS_P1;PMS_P2;Temp;Humidity;BMP_temperature;BMP_pressure;BME280_temperature;BME280_humidity;BME280_pressure;Samples;Min_cycle;Max_cycle;Signal;HPM_P1;HPM_P2
2023/02/17 00:02:16;;;;;;;9.88;6.18;;;;;;;-4.40;54.40;100643.97;5072861;28;20062;-48
2023/02/17 00:04:42;;;;;;;11.63;6.53;;;;;;;-4.41;54.98;100642.22;5073108;28;20402;-47
2023/02/17 00:07:07;;;;;;;10.90;6.32;;;;;;;-4.38;54.06;100642.19;5072415;28;20119;-47
2023/02/17 00:09:32;;;;;;;13.38;6.38;;;;;;;-4.43;54.78;100646.59;5072089;28;20351;-46
2023/02/17 00:11:58;;;;;;;13.32;7.18;;;;;;;-4.39;54.45;100642.19;5072480;28;20390;-48
2023/02/17 00:14:23;;;;;;;11.98;7.05;;;;;;;-4.45;54.38;100634.41;5072389;28;20021;-48
2023/02/17 00:16:49;;;;;;;12.23;6.90;;;;;;;-4.38;54.95;100642.19;5072571;28;20451;-50
2023/02/17 00:19:23;;;;;;;11.70;6.60;;;;;;;-4.35;54.19;100643.91;5072236;28;20115;-46
2023/02/17 00:21:54;;;;;;;11.23;6.22;;;;;;;-4.29;54.04;100656.09;5072488;28;20127;-48
2023/02/17 00:24:20;;;;;;;11.30;6.80;;;;;;;-4.26;54.09;100651.72;5072808;28;20102;-48
2023/02/17 00:26:46;;;;;;;11.07;6.85;;;;;;;-4.28;54.87;100643.03;5072126;28;20071;-48
2023/02/17 00:29:11;;;;;;;11.50;7.03;;;;;;;-4.30;54.65;100642.16;5072521;28;20068;-47
2023/02/17 00:31:36;;;;;;;11.00;6.78;;;;;;;-4.27;54.94;100639.53;5072203;28;20082;-45
2023/02/17 00:34:02;;;;;;;12.77;7.57;;;;;;;-4.15;53.80;100642.94;5072035;28;20020;-47
2023/02/17 00:36:28;;;;;;;12.85;6.82;;;;;;;-4.24;54.38;100636.00;5072346;28;20111;-47
2023/02/17 00:38:55;;;;;;;10.90;6.07;;;;;;;-4.24;54.32;100638.63;5072389;28;20043;-49
2023/02/17 00:41:22;;;;;;;11.40;6.50;;;;;;;-4.22;54.42;100635.13;5072410;28;20056;-49
2023/02/17 00:43:48;;;;;;;11.50;6.40;;;;;;;-4.29;54.18;100638.66;5072351;28;20143;-47
2023/02/17 00:46:16;;;;;;;11.10;6.47;;;;;;;-4.33;54.20;100636.97;5072230;28;20040;-48
2023/02/17 00:48:41;;;;;;;12.38;6.22;;;;;;;-4.36;54.08;100636.94;5072025;28;20036;-49
2023/02/17 00:51:08;;;;;;;11.15;6.22;;;;;;;-4.42;54.38;100634.38;5071970;28;20024;-48
2023/02/17 00:53:35;;;;;;;12.13;7.22;;;;;;;-4.39;54.72;100634.34;5072652;28;20103;-49
2023/02/17 00:56:00;;;;;;;14.02;6.97;;;;;;;-4.37;54.88;100630.88;5071986;28;20048;-49
2023/02/17 00:58:26;;;;;;;9.98;5.97;;;;;;;-4.31;54.73;100624.75;5071918;28;20033;-47
2023/02/17 01:00:52;;;;;;;10.48;6.45;;;;;;;-4.25;54.29;100618.56;5072589;28;20514;-47
2023/02/17 01:03:18;;;;;;;11.57;7.18;;;;;;;-4.22;54.08;100619.44;5072176;28;20119;-48
2023/02/17 01:05:46;;;;;;;13.70;7.10;;;;;;;-4.19;54.08;100614.19;5071908;28;20032;-47
2023/02/17 01:08:12;;;;;;;11.73;6.85;;;;;;;-4.30;54.33;100621.25;5072078;28;20036;-46
2023/02/17 01:10:39;;;;;;;15.10;7.68;;;;;;;-4.39;54.81;100610.81;5072314;28;20032;-48
2023/02/17 01:13:05;;;;;;;13.07;7.05;;;;;;;-4.34;54.69;100619.50;5071984;28;20040;-49
2023/02/17 01:15:31;;;;;;;11.77;7.72;;;;;;;-4.30;54.74;100617.75;5071620;28;20426;-48
2023/02/17 01:17:57;;;;;;;12.80;7.80;;;;;;;-4.37;54.14;100622.16;5072002;28;20051;-50
2023/02/17 01:20:23;;;;;;;11.15;7.10;;;;;;;-4.46;54.66;100623.09;5072821;28;20455;-50
2023/02/17 01:22:48;;;;;;;9.45;5.90;;;;;;;-4.47;54.65;100622.22;5075746;28;20100;-49
2023/02/17 01:25:13;;;;;;;11.38;6.45;;;;;;;-4.44;54.35;100631.78;5075256;28;20028;-47
2023/02/17 01:27:39;;;;;;;10.18;6.30;;;;;;;-4.42;54.36;100630.03;5075343;28;20032;-49
2023/02/17 01:30:05;;;;;;;8.98;5.50;;;;;;;-4.45;54.00;100627.44;5075817;28;20056;-50
2023/02/17 01:32:30;;;;;;;11.65;6.38;;;;;;;-4.58;54.47;100621.41;5075673;28;20051;-49
2023/02/17 01:34:56;;;;;;;13.48;6.43;;;;;;;-4.57;54.58;100628.38;5075406;28;20495;-52
2023/02/17 01:37:21;;;;;;;10.63;6.13;;;;;;;-4.58;54.67;100624.03;5075411;28;20424;-49
2023/02/17 01:39:47;;;;;;;9.82;6.10;;;;;;;-4.56;54.76;100627.50;5075734;28;20036;-47
2023/02/17 01:42:19;;;;;;;11.57;6.45;;;;;;;-4.55;54.65;100621.41;5075357;28;20420;-49
2023/02/17 01:45:16;;;;;;;12.35;6.20;;;;;;;-4.45;54.73;100618.72;5075120;28;20045;-47
2023/02/17 01:47:51;;;;;;;10.35;6.72;;;;;;;-4.42;54.57;100623.91;5075056;28;20157;-49
2023/02/17 01:50:21;;;;;;;11.98;6.65;;;;;;;-4.44;54.93;100615.22;5075418;28;20143;-48
2023/02/17 01:52:47;;;;;;;14.07;6.45;;;;;;;-4.58;54.89;100592.66;5075278;28;20351;-47
2023/02/17 01:55:18;;;;;;;10.75;6.60;;;;;;;-4.39;54.98;100608.22;5074694;28;20037;-45
2023/02/17 01:57:45;;;;;;;9.88;6.03;;;;;;;-4.33;54.33;100629.13;5074825;28;20025;-47
2023/02/17 02:00:13;;;;;;;10.02;5.63;;;;;;;-4.36;54.30;100626.50;5074299;28;20040;-46
2023/02/17 02:02:43;;;;;;;10.48;5.25;;;;;;;-4.29;54.39;100633.44;5074509;28;20104;-49
2023/02/17 02:05:10;;;;;;;10.18;5.88;;;;;;;-4.29;54.53;100620.38;5074628;28;20501;-47
2023/02/17 02:07:40;;;;;;;9.00;5.65;;;;;;;-4.29;54.30;100628.22;5074751;28;20044;-46
2023/02/17 02:10:07;;;;;;;9.40;5.88;;;;;;;-4.34;54.39;100627.34;5074394;28;20128;-45
2023/02/17 02:12:35;;;;;;;10.85;6.35;;;;;;;-4.20;53.76;100625.53;5074401;28;20336;-47
2023/02/17 02:15:07;;;;;;;9.55;5.68;;;;;;;-4.32;54.24;100616.00;5074307;28;20421;-46
2023/02/17 02:17:55;;;;;;;11.70;6.00;;;;;;;-4.34;54.60;100617.78;5074485;28;20036;-48
2023/02/17 02:20:35;;;;;;;9.68;5.57;;;;;;;-4.34;54.71;100617.78;5073304;28;20367;-48
2023/02/17 02:23:22;;;;;;;9.30;5.60;;;;;;;-4.30;54.38;100617.75;5074640;28;20139;-46
2023/02/17 02:26:16;;;;;;;8.93;5.90;;;;;;;-4.26;54.89;100622.06;5074553;28;20032;-46
2023/02/17 02:28:48;;;;;;;9.20;5.78;;;;;;;-4.25;54.32;100615.97;5073130;28;20111;-46
2023/02/17 02:31:43;;;;;;;8.65;5.75;;;;;;;-4.19;54.99;100616.78;5074041;28;20412;-46
2023/02/17 02:34:15;;;;;;;8.88;5.78;;;;;;;-4.13;54.78;100615.00;5074223;28;20043;-49
2023/02/17 02:37:05;;;;;;;9.45;5.88;;;;;;;-4.07;54.68;100610.59;5073899;28;20367;-48
2023/02/17 02:39:37;;;;;;;8.73;5.53;;;;;;;-4.13;55.00;100610.66;5074243;28;20168;-51
2023/02/17 02:42:07;;;;;;;9.30;5.70;;;;;;;-4.13;54.87;100605.44;5074246;28;20029;-47
2023/02/17 02:44:32;;;;;;;10.55;5.75;;;;;;;-4.08;55.00;100618.50;5073718;28;20045;-49
2023/02/17 02:47:00;;;;;;;9.80;5.65;;;;;;;-4.00;54.85;100618.41;5074220;28;20451;-46
2023/02/17 02:49:26;;;;;;;8.48;5.07;;;;;;;-4.01;54.71;100617.56;5074050;28;20113;-48
2023/02/17 02:51:52;;;;;;;9.00;5.63;;;;;;;-4.04;54.53;100617.56;5073733;28;20032;-48
2023/02/17 02:54:34;;;;;;;7.97;5.65;;;;;;;-4.00;54.59;100619.28;5073618;28;20059;-48
2023/02/17 02:57:19;;;;;;;11.68;6.00;;;;;;;-3.99;54.46;100617.53;5074542;28;20039;-48
2023/02/17 02:59:53;;;;;;;10.95;5.88;;;;;;;-3.97;53.90;100619.25;5073621;28;20032;-46
2023/02/17 03:02:43;;;;;;;9.10;6.13;;;;;;;-4.04;54.31;100628.88;5073451;28;20040;-50
2023/02/17 03:05:27;;;;;;;10.13;5.93;;;;;;;-4.02;54.31;100631.50;5074020;28;20110;-46
2023/02/17 03:08:19;;;;;;;9.00;5.57;;;;;;;-4.11;54.75;100627.22;5073726;28;20028;-49
2023/02/17 03:10:47;;;;;;;10.95;6.13;;;;;;;-4.15;55.35;100632.47;5073204;28;20068;-47
2023/02/17 03:13:13;;;;;;;11.50;6.53;;;;;;;-4.15;55.38;100627.22;5073437;28;20415;-45
2023/02/17 03:15:38;;;;;;;11.40;6.43;;;;;;;-4.15;55.35;100622.88;5073824;28;20024;-48
2023/02/17 03:18:04;;;;;;;10.73;6.50;;;;;;;-4.14;55.30;100615.88;5073413;28;20032;-50
2023/02/17 03:20:34;;;;;;;11.88;6.50;;;;;;;-4.22;55.24;100621.16;5073250;28;20058;-46
2023/02/17 03:23:00;;;;;;;9.45;6.10;;;;;;;-4.23;55.83;100616.81;5073552;28;20487;-48
2023/02/17 03:25:25;;;;;;;10.40;6.63;;;;;;;-4.21;55.87;100613.34;5073637;28;20027;-48
2023/02/17 03:27:51;;;;;;;10.82;6.63;;;;;;;-4.14;55.30;100615.88;5073402;28;20055;-47
2023/02/17 03:30:16;;;;;;;11.02;6.60;;;;;;;-4.11;55.46;100621.09;5073026;28;20035;-46
2023/02/17 03:32:42;;;;;;;12.48;7.75;;;;;;;-4.13;55.78;100615.91;5072720;28;20067;-48
2023/02/17 03:35:08;;;;;;;11.27;6.57;;;;;;;-4.12;55.97;100606.28;5073630;28;20035;-47
2023/02/17 03:37:34;;;;;;;11.60;6.60;;;;;;;-4.12;55.09;100593.22;5073340;28;20029;-55
2023/02/17 03:39:59;;;;;;;11.70;7.18;;;;;;;-4.07;55.88;100607.16;5072769;28;20086;-47
2023/02/17 03:42:25;;;;;;;13.85;7.35;;;;;;;-4.01;55.83;100612.31;5072453;28;20442;-48
2023/02/17 03:44:50;;;;;;;12.32;7.18;;;;;;;-4.03;55.51;100611.47;5072780;28;20037;-46
2023/02/17 03:47:16;;;;;;;10.98;6.82;;;;;;;-4.02;55.71;100610.59;5073177;28;20032;-46
2023/02/17 03:49:41;;;;;;;13.52;7.45;;;;;;;-4.04;55.40;100607.13;5072418;28;20070;-46
2023/02/17 03:52:07;;;;;;;13.15;7.25;;;;;;;-4.20;55.75;100588.91;5072626;28;20071;-48
2023/02/17 03:54:32;;;;;;;13.18;7.28;;;;;;;-4.02;55.57;100605.34;5072293;28;20052;-47
2023/02/17 03:56:59;;;;;;;12.60;7.30;;;;;;;-3.93;55.04;100623.56;5072791;28;20036;-50
2023/02/17 03:59:26;;;;;;;11.43;6.70;;;;;;;-3.98;55.33;100617.53;5072445;28;20071;-49
2023/02/17 04:01:51;;;;;;;11.52;6.50;;;;;;;-4.00;54.99;100615.78;5071623;28;20025;-48
2023/02/17 04:04:17;;;;;;;14.05;6.35;;;;;;;-4.04;54.95;100612.34;5072713;28;20446;-48
2023/02/17 04:06:42;;;;;;;13.05;7.20;;;;;;;-4.14;55.83;100608.94;5072495;28;20039;-48
2023/02/17 04:09:07;;;;;;;13.65;7.75;;;;;;;-4.28;55.96;100605.53;5072463;28;20363;-49
2023/02/17 04:11:33;;;;;;;12.88;7.10;;;;;;;-4.28;56.38;100616.88;5072756;28;20427;-47
2023/02/17 04:13:58;;;;;;;12.57;7.20;;;;;;;-4.22;56.41;100616.81;5072527;28;20054;-45
2023/02/17 04:16:24;;;;;;;10.57;6.00;;;;;;;-4.13;55.62;100621.13;5072335;28;20029;-48
2023/02/17 04:18:49;;;;;;;11.60;7.15;;;;;;;-4.14;55.97;100618.50;5072012;28;20071;-44
2023/02/17 04:21:15;;;;;;;11.60;7.10;;;;;;;-4.18;56.09;100620.28;5072506;28;20106;-49
2023/02/17 04:23:40;;;;;;;12.55;7.80;;;;;;;-4.16;55.95;100620.28;5072017;28;20066;-47
2023/02/17 04:26:07;;;;;;;13.23;7.53;;;;;;;-4.14;55.60;100619.38;5072589;28;20028;-47
2023/02/17 04:28:33;;;;;;;14.98;7.90;;;;;;;-4.16;55.86;100609.81;5072731;28;20056;-48
2023/02/17 04:30:59;;;;;;;13.73;7.38;;;;;;;-4.16;55.60;100625.50;5072090;28;20514;-49
2023/02/17 04:33:25;;;;;;;11.40;7.13;;;;;;;-4.11;55.15;100614.13;5072404;28;20115;-46
2023/02/17 04:35:58;;;;;;;13.25;8.25;;;;;;;-4.21;55.91;100622.94;5072932;28;20024;-48
2023/02/17 04:38:23;;;;;;;14.77;8.13;;;;;;;-4.24;56.01;100613.34;5072066;28;20128;-48
2023/02/17 04:40:49;;;;;;;13.45;7.90;;;;;;;-4.11;55.71;100613.25;5071822;28;20028;-48
2023/02/17 04:43:15;;;;;;;14.88;8.52;;;;;;;-4.12;55.79;100608.91;5072101;28;20086;-48
2023/02/17 04:45:40;;;;;;;15.52;9.45;;;;;;;-4.22;56.30;100616.81;5071733;28;20037;-48
2023/02/17 04:48:05;;;;;;;18.85;9.85;;;;;;;-4.20;56.59;100620.28;5072221;28;20059;-47
2023/02/17 04:50:31;;;;;;;19.65;11.32;;;;;;;-4.14;56.17;100615.88;5072334;28;20036;-47
2023/02/17 04:52:56;;;;;;;19.17;11.25;;;;;;;-4.16;56.32;100612.41;5072438;28;20045;-46
2023/02/17 04:55:22;;;;;;;16.10;9.80;;;;;;;-4.11;56.02;100628.94;5072189;28;20084;-46
2023/02/17 04:57:47;;;;;;;18.80;10.50;;;;;;;-4.13;56.97;100621.13;5075870;28;20024;-48
2023/02/17 05:00:13;;;;;;;18.65;11.30;;;;;;;-4.13;56.48;100618.50;5075824;28;20036;-47
2023/02/17 05:02:38;;;;;;;16.33;10.65;;;;;;;-4.10;56.45;100618.47;5076669;28;20036;-56
2023/02/17 05:05:04;;;;;;;19.27;10.75;;;;;;;-4.16;56.59;100620.28;5075961;28;20029;-47
2023/02/17 05:07:29;;;;;;;19.33;10.15;;;;;;;-4.11;56.58;100621.09;5075627;28;20067;-49
2023/02/17 05:09:55;;;;;;;15.93;8.57;;;;;;;-3.96;56.55;100620.13;5076210;28;20512;-48
2023/02/17 05:12:20;;;;;;;18.60;11.05;;;;;;;-3.96;55.96;100626.22;5076246;28;20509;-46
2023/02/17 05:14:46;;;;;;;17.88;10.70;;;;;;;-4.03;56.00;100611.47;5075461;28;20029;-46
2023/02/17 05:17:11;;;;;;;18.65;10.48;;;;;;;-4.04;56.36;100609.72;5075632;28;20025;-49
2023/02/17 05:19:37;;;;;;;18.23;10.18;;;;;;;-3.98;55.80;100617.53;5076041;28;20047;-49
2023/02/17 05:22:02;;;;;;;17.02;10.20;;;;;;;-4.04;56.01;100620.19;5075748;28;20028;-47
2023/02/17 05:24:28;;;;;;;18.75;9.68;;;;;;;-4.10;56.29;100622.84;5075296;28;20036;-47
2023/02/17 05:26:53;;;;;;;18.50;10.15;;;;;;;-4.10;56.57;100622.84;5075289;28;20082;-46
2023/02/17 05:29:19;;;;;;;16.63;8.18;;;;;;;-4.00;56.69;100619.28;5075427;28;20107;-47
2023/02/17 05:31:44;;;;;;;13.32;8.20;;;;;;;-4.01;56.01;100612.31;5075855;28;20246;-48
2023/02/17 05:34:09;;;;;;;17.52;7.50;;;;;;;-3.98;56.37;100614.91;5075394;28;20441;-47
2023/02/17 05:36:35;;;;;;;14.60;8.35;;;;;;;-3.89;55.83;100630.50;5074595;28;20419;-51
2023/02/17 05:39:00;;;;;;;15.05;8.10;;;;;;;-3.93;56.32;100634.03;5074996;28;20032;-51
2023/02/17 05:41:27;;;;;;;17.42;8.55;;;;;;;-3.87;56.24;100620.06;5075372;28;20329;-49
2023/02/17 05:43:53;;;;;;;15.82;8.15;;;;;;;-3.86;56.03;100629.63;5075163;28;20072;-46
2023/02/17 05:46:18;;;;;;;17.42;8.82;;;;;;;-3.86;56.70;100624.41;5074929;28;20068;-49
2023/02/17 05:48:44;;;;;;;14.20;7.95;;;;;;;-3.76;55.96;100622.59;5075309;28;20149;-46
2023/02/17 05:51:12;;;;;;;15.48;8.60;;;;;;;-3.82;56.29;100627.88;5075526;28;20028;-49
2023/02/17 05:53:38;;;;;;;14.38;8.65;;;;;;;-3.82;56.26;100635.72;5075028;28;20108;-47
2023/02/17 05:56:04;;;;;;;16.63;8.68;;;;;;;-3.87;56.88;100627.03;5074798;28;20503;-46
2023/02/17 05:58:29;;;;;;;19.33;9.82;;;;;;;-3.82;56.29;100635.72;5074635;28;20024;-50
2023/02/17 06:00:55;;;;;;;16.40;9.23;;;;;;;-3.75;55.86;100637.41;5074804;28;20033;-49
2023/02/17 06:03:20;;;;;;;14.98;8.60;;;;;;;-3.79;56.22;100636.53;5074707;28;20033;-48
2023/02/17 06:05:46;;;;;;;15.70;8.90;;;;;;;-3.73;56.25;100634.78;5074406;28;20086;-50
2023/02/17 06:08:11;;;;;;;16.48;8.73;;;;;;;-3.87;56.22;100621.78;5074470;28;20067;-48
2023/02/17 06:10:37;;;;;;;16.45;9.48;;;;;;;-3.74;56.32;100644.38;5074633;28;20124;-49
2023/02/17 06:13:02;;;;;;;16.95;9.25;;;;;;;-3.70;56.06;100640.84;5074467;28;20040;-46
2023/02/17 06:15:29;;;;;;;17.48;8.07;;;;;;;-3.68;56.15;100641.69;5074651;28;20439;-49
2023/02/17 06:17:54;;;;;;;16.08;8.18;;;;;;;-3.66;56.05;100642.53;5074398;28;20029;-49
2023/02/17 06:20:20;;;;;;;14.43;7.65;;;;;;;-3.61;55.66;100640.78;5074348;28;20501;-48
2023/02/17 06:22:45;;;;;;;17.15;9.40;;;;;;;-3.62;56.47;100646.91;5074727;28;20039;-48
2023/02/17 06:25:11;;;;;;;18.17;9.35;;;;;;;-3.52;56.66;100650.28;5074604;28;20111;-49
2023/02/17 06:27:36;;;;;;;19.33;10.10;;;;;;;-3.42;55.97;100653.66;5073891;28;20427;-46
2023/02/17 06:30:02;;;;;;;17.48;10.07;;;;;;;-3.35;55.72;100647.53;5074258;28;20069;-49
2023/02/17 06:32:30;;;;;;;17.70;10.05;;;;;;;-3.40;56.31;100649.28;5074482;28;20089;-48
2023/02/17 06:34:55;;;;;;;16.42;9.77;;;;;;;-3.36;55.65;100647.53;5073775;28;20427;-45
2023/02/17 06:37:20;;;;;;;17.15;9.57;;;;;;;-3.32;55.80;100650.09;5074252;28;20586;-51
2023/02/17 06:39:46;;;;;;;16.83;9.00;;;;;;;-3.21;55.15;100659.59;5074415;28;20028;-46
2023/02/17 06:42:11;;;;;;;16.25;8.95;;;;;;;-3.25;55.79;100648.28;5074003;28;20036;-49
2023/02/17 06:44:37;;;;;;;15.85;8.07;;;;;;;-3.39;55.53;100645.78;5073810;28;20071;-48
2023/02/17 06:47:03;;;;;;;14.90;7.63;;;;;;;-3.33;55.63;100629.16;5074331;28;20028;-48
2023/02/17 06:49:28;;;;;;;12.93;7.75;;;;;;;-3.44;55.40;100636.25;5073807;28;20032;-46
2023/02/17 06:51:54;;;;;;;13.32;7.03;;;;;;;-3.13;55.06;100635.94;5073755;28;20032;-48
2023/02/17 06:54:19;;;;;;;14.48;7.43;;;;;;;-3.24;55.43;100638.66;5073811;28;20032;-52
2023/02/17 06:56:45;;;;;;;14.10;6.90;;;;;;;-3.22;55.56;100636.91;5074471;28;20036;-49
2023/02/17 06:59:10;;;;;;;16.25;7.05;;;;;;;-3.21;54.72;100638.63;5073987;28;20039;-50
2023/02/17 07:01:35;;;;;;;10.32;6.40;;;;;;;-3.14;54.57;100640.28;5073363;28;20060;-46
2023/02/17 07:04:01;;;;;;;13.65;7.20;;;;;;;-3.11;54.63;100635.03;5072566;28;20029;-48
2023/02/17 07:06:27;;;;;;;12.30;6.82;;;;;;;-3.04;54.79;100641.06;5073976;28;20024;-49
2023/02/17 07:08:52;;;;;;;12.27;6.35;;;;;;;-2.97;54.69;100644.47;5073647;28;20161;-51
2023/02/17 07:11:18;;;;;;;10.52;6.22;;;;;;;-3.08;54.17;100597.44;5073480;28;20063;-49
2023/02/17 07:13:43;;;;;;;13.80;7.28;;;;;;;-2.99;54.54;100627.91;5073447;28;20041;-49
2023/02/17 07:16:11;;;;;;;15.52;8.18;;;;;;;-2.94;54.86;100631.34;5073980;28;20078;-48
2023/02/17 07:18:37;;;;;;;14.27;7.53;;;;;;;-3.01;55.56;100640.16;5072741;28;20043;-48
2023/02/17 07:21:04;;;;;;;12.95;8.15;;;;;;;-3.09;55.04;100619.28;5073156;28;20036;-51
2023/02/17 07:23:30;;;;;;;13.68;7.63;;;;;;;-2.95;55.43;100629.63;5073238;28;20020;-50
2023/02/17 07:25:55;;;;;;;14.00;7.50;;;;;;;-2.89;54.67;100634.81;5073681;28;20043;-47
2023/02/17 07:28:21;;;;;;;16.17;7.75;;;;;;;-2.86;54.79;100626.91;5073281;28;20040;-48
2023/02/17 07:30:46;;;;;;;14.57;8.48;;;;;;;-3.03;55.49;100625.34;5073215;28;20033;-46
2023/02/17 07:33:12;;;;;;;14.80;8.07;;;;;;;-3.10;55.21;100622.81;5073078;28;20043;-48
2023/02/17 07:35:44;;;;;;;18.58;8.98;;;;;;;-3.13;56.18;100638.56;5073446;28;20082;-49
2023/02/17 07:38:10;;;;;;;15.55;8.55;;;;;;;-3.15;55.67;100620.22;5073583;28;20094;-53
2023/02/17 07:40:37;;;;;;;14.30;8.30;;;;;;;-3.09;55.99;100630.66;5072808;28;20037;-47
2023/02/17 07:43:03;;;;;;;17.45;8.70;;;;;;;-3.01;55.66;100633.19;5072652;28;20106;-47
2023/02/17 07:45:28;;;;;;;18.17;9.15;;;;;;;-2.94;55.25;100642.72;5073659;28;20029;-46
2023/02/17 07:47:54;;;;;;;14.13;7.15;;;;;;;-3.10;55.52;100607.09;5073204;28;20405;-51
2023/02/17 07:50:19;;;;;;;16.60;7.90;;;;;;;-2.85;54.98;100636.50;5072850;28;20028;-51
2023/02/17 07:52:45;;;;;;;15.25;7.43;;;;;;;-2.80;54.96;100629.44;5073072;28;20048;-48
2023/02/17 07:55:10;;;;;;;13.88;7.55;;;;;;;-2.92;54.60;100634.81;5072684;28;20060;-47
2023/02/17 07:57:36;;;;;;;17.58;8.60;;;;;;;-2.83;55.14;100628.59;5072797;28;20435;-48
2023/02/17 08:00:03;;;;;;;14.82;8.48;;;;;;;-2.84;53.95;100598.03;5072682;28;20125;-51
2023/02/17 08:02:29;;;;;;;13.00;7.35;;;;;;;-2.68;53.47;100627.53;5072516;28;20032;-49
2023/02/17 08:04:54;;;;;;;10.57;7.03;;;;;;;-2.63;53.02;100628.38;5072856;28;20039;-47
2023/02/17 08:07:20;;;;;;;14.18;7.55;;;;;;;-2.53;53.30;100621.22;5072831;28;20103;-51
2023/02/17 08:13:18;;;;;;;17.88;8.45;;;;;;;-2.39;52.51;100619.28;5072811;28;20070;-49
2023/02/17 08:15:33;;;;;;;13.20;8.23;;;;;;;-2.20;52.21;100619.88;5072410;28;20036;-46
2023/02/17 08:17:59;;;;;;;12.85;7.78;;;;;;;-2.05;52.08;100607.41;5072822;28;20119;-48
2023/02/17 08:20:25;;;;;;;14.68;8.25;;;;;;;-1.74;50.87;100614.78;5072308;28;20481;-50
2023/02/17 08:22:51;;;;;;;13.73;8.75;;;;;;;-1.50;50.73;100602.09;5072240;28;20028;-48
2023/02/17 08:25:17;;;;;;;15.27;9.43;;;;;;;-1.27;50.78;100621.84;5073186;28;20051;-49
2023/02/17 08:27:43;;;;;;;17.02;8.73;;;;;;;-1.13;49.71;100614.56;5072608;28;20028;-48
2023/02/17 08:30:09;;;;;;;15.68;8.57;;;;;;;-1.06;49.42;100604.81;5072241;28;20466;-48
2023/02/17 08:32:35;;;;;;;17.35;9.80;;;;;;;-0.98;49.45;100613.41;5072518;28;20490;-48
2023/02/17 08:35:00;;;;;;;15.63;9.40;;;;;;;-1.02;49.09;100607.31;5072820;28;20158;-49
2023/02/17 08:37:26;;;;;;;15.88;9.38;;;;;;;-1.17;49.88;100618.16;5072355;28;20123;-50
2023/02/17 08:39:52;;;;;;;14.77;9.52;;;;;;;-1.21;50.00;100609.47;5072223;28;20051;-49
2023/02/17 08:42:18;;;;;;;18.20;9.63;;;;;;;-1.17;49.84;100602.41;5072795;28;20028;-50
2023/02/17 08:44:44;;;;;;;15.52;9.63;;;;;;;-1.06;50.05;100604.81;5072640;28;20094;-49
2023/02/17 08:47:10;;;;;;;13.85;8.15;;;;;;;-0.91;49.54;100606.25;5072443;28;20028;-49
2023/02/17 08:49:35;;;;;;;13.73;9.00;;;;;;;-1.11;49.76;100591.75;5072033;28;20117;-48
2023/02/17 08:52:01;;;;;;;14.63;8.40;;;;;;;-1.14;50.01;100597.06;5072745;28;20051;-48
2023/02/17 08:54:27;;;;;;;13.65;7.53;;;;;;;-1.22;49.58;100604.22;5072524;28;20029;-48
2023/02/17 08:56:53;;;;;;;12.57;8.15;;;;;;;-1.13;49.34;100588.28;5071757;28;20036;-48
2023/02/17 08:59:18;;;;;;;14.20;7.85;;;;;;;-1.07;49.41;100588.16;5072449;28;20115;-47
2023/02/17 09:01:44;;;;;;;12.55;7.70;;;;;;;-0.89;48.83;100591.31;5072492;28;20028;-49
2023/02/17 09:04:12;;;;;;;17.33;7.78;;;;;;;-0.84;48.83;100589.44;5072320;28;20111;-49
2023/02/17 09:06:44;;;;;;;15.63;7.80;;;;;;;-0.81;49.02;100593.78;5072178;28;20091;-49
2023/02/17 09:09:12;;;;;;;13.68;8.07;;;;;;;-0.80;48.58;100596.38;5072058;28;20024;-48
2023/02/17 09:11:38;;;;;;;13.27;7.85;;;;;;;-0.96;49.38;100582.69;5072381;28;20427;-49
2023/02/17 09:14:04;;;;;;;12.55;7.85;;;;;;;-0.99;49.49;100598.53;5072191;28;20078;-47
2023/02/17 09:16:30;;;;;;;13.93;7.93;;;;;;;-1.09;49.45;100584.69;5071940;28;20040;-51
2023/02/17 09:18:55;;;;;;;15.30;8.80;;;;;;;-1.11;49.43;100601.38;5071842;28;20032;-51
2023/02/17 09:21:21;;;;;;;12.40;7.53;;;;;;;-1.21;49.75;100601.56;5072838;28;20177;-50
2023/02/17 09:23:47;;;;;;;15.32;8.35;;;;;;;-1.35;49.86;100591.34;5071997;28;20035;-48
2023/02/17 09:26:14;;;;;;;16.52;9.38;;;;;;;-1.36;50.02;100594.84;5071692;28;20028;-49
2023/02/17 09:28:40;;;;;;;15.93;9.55;;;;;;;-1.40;50.34;100595.81;5071764;28;20086;-48
2023/02/17 09:31:12;;;;;;;15.98;8.85;;;;;;;-1.34;50.31;100590.44;5072031;28;20044;-47
2023/02/17 09:33:38;;;;;;;17.42;9.02;;;;;;;-1.40;50.37;100590.56;5072064;28;20033;-46
2023/02/17 09:36:06;;;;;;;15.65;9.02;;;;;;;-1.46;50.40;100593.28;5071645;28;20039;-49
2023/02/17 09:38:32;;;;;;;16.88;9.63;;;;;;;-1.47;50.29;100588.91;5071193;28;20329;-46
2023/02/17 09:41:06;;;;;;;16.90;9.48;;;;;;;-1.55;50.91;100577.69;5072035;28;20128;-48
2023/02/17 09:43:33;;;;;;;16.80;9.15;;;;;;;-1.52;50.58;100581.16;5075023;28;20370;-48
2023/02/17 09:46:11;;;;;;;16.02;9.57;;;;;;;-1.51;51.40;100582.00;5075126;28;20066;-48
2023/02/17 09:48:38;;;;;;;15.35;9.75;;;;;;;-1.53;51.02;100583.78;5075088;28;20119;-49
2023/02/17 09:51:12;;;;;;;18.10;9.85;;;;;;;-1.56;51.49;100578.59;5074602;28;20033;-49
2023/02/17 09:54:04;;;;;;;19.20;11.27;;;;;;;-1.52;51.63;100575.91;5074946;28;20043;-50
2023/02/17 09:56:38;;;;;;;18.83;9.82;;;;;;;-1.54;51.62;100587.31;5075064;28;20266;-48
2023/02/17 09:59:38;;;;;;;17.65;10.00;;;;;;;-1.52;51.75;100564.50;5074908;28;20025;-48
2023/02/17 10:02:15;;;;;;;17.10;9.60;;;;;;;-1.50;51.45;100567.97;5075023;28;20024;-48
2023/02/17 10:04:45;;;;;;;16.25;9.70;;;;;;;-1.51;51.16;100576.75;5074832;28;20038;-50
2023/02/17 10:07:16;;;;;;;17.42;9.30;;;;;;;-1.53;50.95;100568.91;5075337;28;20111;-47
2023/02/17 10:09:52;;;;;;;17.15;9.55;;;;;;;-1.49;51.27;100569.69;5074728;28;20070;-46
2023/02/17 10:12:24;;;;;;;14.52;8.55;;;;;;;-1.54;50.41;100561.03;5074992;28;20107;-47
2023/02/17 10:15:04;;;;;;;16.67;8.77;;;;;;;-1.59;51.31;100571.63;5075022;28;20028;-49
2023/02/17 10:17:42;;;;;;;14.05;8.40;;;;;;;-1.55;50.62;100564.56;5074602;28;20036;-50
2023/02/17 10:20:14;;;;;;;17.55;9.73;;;;;;;-1.64;50.69;100524.47;5074600;28;20028;-47
2023/02/17 10:22:46;;;;;;;15.52;9.15;;;;;;;-1.32;50.57;100551.88;5074893;28;20472;-47
2023/02/17 10:25:18;;;;;;;15.18;8.90;;;;;;;-1.23;50.25;100549.94;5074386;28;20032;-49
2023/02/17 10:28:01;;;;;;;16.33;9.63;;;;;;;-1.08;50.02;100541.75;5074400;28;20407;-47
2023/02/17 10:30:39;;;;;;;15.75;9.27;;;;;;;-1.08;50.22;100543.53;5074754;28;20103;-61
2023/02/17 10:33:43;;;;;;;17.95;9.68;;;;;;;-1.00;50.54;100544.22;5074545;28;20028;-48
2023/02/17 10:36:30;;;;;;;16.90;9.95;;;;;;;-1.03;49.82;100547.78;5074337;28;20060;-47
2023/02/17 10:39:26;;;;;;;17.50;9.95;;;;;;;-0.99;49.90;100531.94;5074957;28;20028;-46
2023/02/17 10:41:53;;;;;;;17.02;9.98;;;;;;;-1.02;50.28;100532.88;5074088;28;20029;-48
2023/02/17 10:44:23;;;;;;;19.85;10.27;;;;;;;-0.99;50.30;100524.03;5074118;28;20063;-49
2023/02/17 10:46:51;;;;;;;17.83;10.32;;;;;;;-0.99;50.50;100524.03;5074534;28;20037;-49
2023/02/17 10:49:28;;;;;;;18.38;10.70;;;;;;;-0.97;50.79;100530.13;5074373;28;20458;-55
2023/02/17 10:51:59;;;;;;;17.60;9.95;;;;;;;-0.98;50.31;100533.66;5074368;28;20115;-48
2023/02/17 10:54:34;;;;;;;16.98;10.18;;;;;;;-0.92;49.98;100520.41;5072867;28;20094;-50
2023/02/17 10:57:03;;;;;;;15.48;10.07;;;;;;;-0.90;50.41;100526.50;5074302;28;20029;-49
2023/02/17 10:59:34;;;;;;;18.17;10.55;;;;;;;-0.89;50.10;100525.59;5073914;28;20032;-50
2023/02/17 11:02:18;;;;;;;15.25;9.48;;;;;;;-0.90;49.89;100522.09;5073726;28;20367;-52
2023/02/17 11:04:48;;;;;;;17.52;10.13;;;;;;;-0.98;49.75;100517.88;5073827;28;20519;-48
2023/02/17 11:07:16;;;;;;;17.35;9.90;;;;;;;-1.04;49.85;100513.66;5074195;28;20021;-50
2023/02/17 11:09:52;;;;;;;16.67;10.07;;;;;;;-1.09;50.78;100532.13;5073756;28;20103;-49
2023/02/17 11:12:26;;;;;;;16.02;9.82;;;;;;;-1.24;50.69;100519.31;5073317;28;20085;-48
2023/02/17 11:14:53;;;;;;;16.15;10.13;;;;;;;-1.23;50.33;100515.78;5073707;28;20447;-47
2023/02/17 11:17:30;;;;;;;17.02;10.27;;;;;;;-1.22;51.32;100514.88;5073877;28;20036;-48
2023/02/17 11:20:02;;;;;;;20.92;11.35;;;;;;;-1.30;50.93;100509.81;5073768;28;20041;-49
2023/02/17 11:22:52;;;;;;;18.25;11.13;;;;;;;-1.34;51.13;100516.88;5073137;28;20036;-48
2023/02/17 11:25:44;;;;;;;17.90;9.93;;;;;;;-1.34;50.58;100510.75;5066273;28;20048;-47
2023/02/17 11:28:12;;;;;;;18.05;10.50;;;;;;;-1.31;51.12;100511.56;5071501;28;20044;-49